Time;durP1;ratioP1;P1;durP2;ratioP2;P2;SDS_P1;SDS_P2;PMS_P1;PMS_P2;Temp;Humidity;BMP_temperature;BMP_pressure;BME280_temperature;BME280_humidity;BME280_pressure;Samples;Min_cycle;Max_cycle;Signal;HPM_P1;HPM_P2
2021/05/20 00:01:36;;;;;;;2.93;1.60;;;14.00;99.90;;;;;;5060277;28;20199;-84
2021/05/20 00:04:03;;;;;;;1.70;1.57;;;13.90;99.90;;;;;;5091382;28;20202;-84
2021/05/20 00:06:29;;;;;;;1.70;1.70;;;13.90;99.90;;;;;;5114211;28;20985;-84
2021/05/20 00:08:56;;;;;;;2.80;1.70;;;13.90;99.90;;;;;;5093788;28;20198;-85
2021/05/20 00:11:22;;;;;;;1.80;1.70;;;13.70;99.90;;;;;;5010739;28;20209;-85
2021/05/20 00:13:48;;;;;;;1.83;1.73;;;13.60;99.90;;;;;;5010745;28;21000;-84
2021/05/20 00:16:14;;;;;;;1.60;1.50;;;13.70;99.90;;;;;;5010821;28;20213;-85
2021/05/20 00:18:41;;;;;;;1.73;1.70;;;13.60;99.90;;;;;;5025794;28;20212;-80
2021/05/20 00:21:08;;;;;;;1.80;1.70;;;13.70;99.90;;;;;;5028338;28;20221;-81
2021/05/20 00:23:34;;;;;;;2.00;1.80;;;13.60;99.90;;;;;;5036525;28;20206;-80
2021/05/20 00:26:00;;;;;;;1.70;1.60;;;13.70;99.90;;;;;;5028092;28;20302;-80
2021/05/20 00:28:26;;;;;;;1.63;1.63;;;13.70;99.90;;;;;;5052199;28;20646;-81
2021/05/20 00:30:52;;;;;;;1.60;1.50;;;13.80;99.90;;;;;;5008038;28;20726;-80
2021/05/20 00:33:18;;;;;;;2.87;1.37;;;13.70;99.90;;;;;;5008451;28;20206;-81
2021/05/20 00:35:45;;;;;;;2.03;1.60;;;13.80;99.90;;;;;;5008655;28;20210;-82
2021/05/20 00:38:12;;;;;;;2.20;1.60;;;13.80;99.90;;;;;;5008264;28;20222;-81
2021/05/20 00:40:38;;;;;;;1.70;1.60;;;13.80;99.90;;;;;;5008204;28;20210;-82
2021/05/20 00:43:05;;;;;;;2.13;1.70;;;13.80;99.90;;;;;;5019666;28;20293;-82
2021/05/20 00:45:31;;;;;;;1.60;1.50;;;13.70;99.90;;;;;;5028290;28;20208;-84
2021/05/20 00:47:57;;;;;;;1.93;1.83;;;13.40;99.90;;;;;;5028467;28;20765;-82
2021/05/20 00:50:23;;;;;;;1.80;1.70;;;13.40;99.90;;;;;;5029146;27;20209;-83
2021/05/20 00:52:50;;;;;;;2.33;1.73;;;13.30;99.90;;;;;;5028527;28;20209;-83
2021/05/20 00:55:19;;;;;;;1.77;1.67;;;13.10;99.90;;;;;;5029581;28;20607;-83
2021/05/20 00:57:46;;;;;;;5.37;1.87;;;13.00;99.90;;;;;;5028994;28;20205;-83
2021/05/20 01:00:14;;;;;;;1.77;1.60;;;13.10;99.90;;;;;;5028962;28;20258;-83
2021/05/20 01:02:42;;;;;;;2.07;1.87;;;12.90;99.90;;;;;;5029180;28;20213;-83
2021/05/20 01:05:10;;;;;;;2.77;1.90;;;12.80;99.90;;;;;;5028994;28;20329;-82
2021/05/20 01:07:36;;;;;;;2.00;1.57;;;12.70;99.90;;;;;;5028584;28;20251;-83
2021/05/20 01:10:06;;;;;;;1.90;1.70;;;12.60;99.90;;;;;;5028858;28;20208;-83
2021/05/20 01:12:32;;;;;;;1.80;1.70;;;12.60;99.90;;;;;;5028397;28;20583;-83
2021/05/20 01:14:58;;;;;;;1.80;1.70;;;12.60;99.90;;;;;;5015941;28;20245;-82
2021/05/20 01:17:25;;;;;;;1.70;1.60;;;12.80;99.90;;;;;;5008711;28;20209;-82
2021/05/20 01:19:52;;;;;;;1.50;1.50;;;12.90;99.90;;;;;;5014762;28;20654;-83
2021/05/20 01:22:19;;;;;;;2.53;1.57;;;13.00;99.90;;;;;;5028132;28;20714;-83
2021/05/20 01:24:46;;;;;;;2.10;1.90;;;12.90;99.90;;;;;;5028252;28;20200;-83
2021/05/20 01:27:14;;;;;;;1.77;1.67;;;12.70;99.90;;;;;;5036783;28;20228;-81
2021/05/20 01:29:42;;;;;;;1.70;1.60;;;12.80;99.90;;;;;;5047737;28;20216;-79
2021/05/20 01:32:09;;;;;;;2.00;1.50;;;12.90;99.90;;;;;;5027339;28;20575;-82
2021/05/20 01:34:36;;;;;;;1.53;1.40;;;13.00;99.90;;;;;;5027509;27;20212;-82
2021/05/20 01:37:03;;;;;;;1.70;1.60;;;13.10;99.90;;;;;;5028331;28;20258;-82
2021/05/20 01:39:31;;;;;;;2.50;1.70;;;13.20;99.90;;;;;;5027741;28;20265;-82
2021/05/20 01:41:57;;;;;;;1.60;1.50;;;13.10;99.90;;;;;;5060146;28;20218;-83
2021/05/20 01:44:23;;;;;;;1.77;1.67;;;13.10;99.90;;;;;;5110828;28;20245;-84
2021/05/20 01:46:49;;;;;;;1.90;1.57;;;13.10;99.90;;;;;;5110916;28;20221;-82
2021/05/20 01:49:16;;;;;;;1.63;1.53;;;13.10;99.90;;;;;;5069648;28;20588;-81
2021/05/20 01:51:43;;;;;;;1.70;1.60;;;13.10;99.90;;;;;;5007058;28;20212;-81
2021/05/20 01:54:09;;;;;;;1.50;1.40;;;13.20;99.90;;;;;;5007024;28;20213;-80
2021/05/20 01:56:37;;;;;;;1.40;1.40;;;13.20;99.90;;;;;;5006620;28;20245;-81
2021/05/20 01:59:04;;;;;;;1.83;1.73;;;13.30;99.90;;;;;;5007039;28;20722;-80
2021/05/20 02:01:30;;;;;;;1.50;1.50;;;13.00;99.90;;;;;;5108634;28;20238;-81
2021/05/20 02:03:57;;;;;;;1.60;1.50;;;13.00;99.90;;;;;;5110005;28;20209;-80
2021/05/20 02:06:23;;;;;;;1.50;1.50;;;13.10;99.90;;;;;;5109415;28;20226;-80
2021/05/20 02:08:49;;;;;;;1.70;1.60;;;13.20;99.90;;;;;;5109596;28;20234;-81
2021/05/20 02:11:15;;;;;;;1.87;1.20;;;13.20;99.90;;;;;;5109250;28;20683;-80
2021/05/20 02:13:43;;;;;;;1.90;1.80;;;13.30;99.90;;;;;;5109632;28;20728;-83
2021/05/20 02:16:09;;;;;;;1.70;1.60;;;13.30;99.90;;;;;;5068834;28;20243;-83
2021/05/20 02:18:37;;;;;;;1.80;1.70;;;12.90;99.90;;;;;;5007917;28;20216;-82
2021/05/20 02:21:04;;;;;;;1.67;1.60;;;12.70;99.90;;;;;;5007959;28;20732;-82
2021/05/20 02:23:33;;;;;;;1.50;1.43;;;12.80;99.90;;;;;;5007986;28;20272;-83
2021/05/20 02:25:59;;;;;;;1.60;1.60;;;12.70;99.90;;;;;;5007950;28;20209;-84
2021/05/20 02:28:26;;;;;;;1.60;1.53;;;12.90;99.90;;;;;;5031155;28;20709;-84
2021/05/20 02:30:53;;;;;;;1.80;1.70;;;12.60;99.90;;;;;;5025388;28;20215;-83
2021/05/20 02:33:19;;;;;;;1.73;1.63;;;12.60;99.90;;;;;;5021103;28;20565;-84
2021/05/20 02:35:45;;;;;;;1.57;1.57;;;12.60;99.90;;;;;;5056571;28;20243;-78
2021/05/20 02:38:12;;;;;;;1.67;1.50;;;12.60;99.90;;;;;;5026783;28;20220;-84
2021/05/20 02:40:38;;;;;;;1.60;1.50;;;12.70;99.90;;;;;;5027994;28;20238;-82
2021/05/20 02:43:04;;;;;;;1.80;1.70;;;12.80;99.90;;;;;;5026465;28;20293;-82
2021/05/20 02:45:31;;;;;;;2.57;1.50;;;12.70;99.90;;;;;;5026424;28;20635;-82
2021/05/20 02:47:58;;;;;;;1.37;1.37;;;12.70;99.90;;;;;;5026635;28;20272;-81
2021/05/20 02:50:25;;;;;;;1.60;1.50;;;12.70;99.90;;;;;;5026615;28;20239;-82
2021/05/20 02:52:52;;;;;;;1.90;1.80;;;12.80;99.90;;;;;;5025706;28;20221;-81
2021/05/20 02:55:20;;;;;;;1.80;1.70;;;12.60;99.90;;;;;;5031108;28;20208;-81
2021/05/20 02:57:47;;;;;;;1.37;1.37;;;12.60;99.90;;;;;;5109465;28;20213;-81
2021/05/20 03:00:15;;;;;;;1.47;1.37;;;12.70;99.90;;;;;;5109776;28;20259;-83
2021/05/20 03:02:41;;;;;;;1.87;1.50;;;12.90;99.90;;;;;;5109935;28;20670;-81
2021/05/20 03:05:09;;;;;;;2.00;1.77;;;12.80;99.90;;;;;;5109655;28;20205;-82
2021/05/20 03:07:36;;;;;;;1.70;1.60;;;12.80;99.90;;;;;;5109103;28;20233;-81
2021/05/20 03:10:03;;;;;;;1.80;1.70;;;12.80;99.90;;;;;;5109054;28;20660;-81
2021/05/20 03:12:29;;;;;;;1.80;1.70;;;12.80;99.90;;;;;;5109188;28;20206;-81
2021/05/20 03:14:56;;;;;;;1.60;1.50;;;12.90;99.90;;;;;;5109035;28;20201;-81
2021/05/20 03:17:22;;;;;;;2.00;1.90;;;13.00;99.90;;;;;;5011967;28;20210;-82
2021/05/20 03:19:49;;;;;;;1.87;1.77;;;12.90;99.90;;;;;;5005734;28;20266;-83
2021/05/20 03:22:16;;;;;;;1.73;1.63;;;12.80;99.90;;;;;;5005638;28;20632;-80
2021/05/20 03:24:43;;;;;;;1.80;1.80;;;12.70;99.90;;;;;;5005970;28;20563;-81
2021/05/20 03:27:09;;;;;;;2.10;1.87;;;12.60;99.90;;;;;;5005871;28;20346;-81
2021/05/20 03:29:35;;;;;;;1.97;1.57;;;12.70;99.90;;;;;;5005311;28;20569;-81
2021/05/20 03:32:01;;;;;;;1.50;1.40;;;12.70;99.90;;;;;;5005619;28;20240;-81
2021/05/20 03:34:28;;;;;;;1.80;1.70;;;12.70;99.90;;;;;;5005540;28;20703;-80
2021/05/20 03:36:54;;;;;;;2.07;1.97;;;12.80;99.90;;;;;;5019287;28;20205;-80
2021/05/20 03:39:21;;;;;;;3.20;1.80;;;12.80;99.90;;;;;;5025011;28;20213;-80
2021/05/20 03:41:47;;;;;;;1.90;1.80;;;12.80;99.90;;;;;;5024936;28;20236;-80
2021/05/20 03:44:13;;;;;;;2.07;1.90;;;12.80;99.90;;;;;;5025133;28;20245;-82
2021/05/20 03:46:39;;;;;;;2.33;2.13;;;12.70;99.90;;;;;;5025715;28;20212;-82
2021/05/20 03:49:05;;;;;;;2.00;1.90;;;12.60;99.90;;;;;;5025927;28;20233;-82
2021/05/20 03:51:31;;;;;;;2.10;2.00;;;12.30;99.90;;;;;;5026030;28;20205;-83
2021/05/20 03:53:57;;;;;;;2.00;1.90;;;12.40;99.90;;;;;;5025830;28;20667;-83
2021/05/20 03:56:24;;;;;;;2.07;1.97;;;12.60;99.90;;;;;;5100592;28;20207;-82
2021/05/20 03:58:51;;;;;;;2.73;2.17;;;12.60;99.90;;;;;;5109401;28;20222;-84
2021/05/20 04:01:17;;;;;;;4.30;2.20;;;12.70;99.90;;;;;;5110112;28;20202;-83
2021/05/20 04:03:43;;;;;;;2.20;2.10;;;12.70;99.90;;;;;;5110508;28;20291;-82
2021/05/20 04:06:09;;;;;;;2.80;2.50;;;12.70;99.90;;;;;;5069179;28;20891;-82
2021/05/20 04:08:35;;;;;;;2.37;2.27;;;12.70;99.90;;;;;;5026135;28;20240;-79
2021/05/20 04:11:02;;;;;;;2.37;2.27;;;12.80;99.90;;;;;;5025855;28;20222;-83
2021/05/20 04:13:30;;;;;;;2.57;2.47;;;12.90;99.90;;;;;;5011000;28;20670;-82
2021/05/20 04:15:56;;;;;;;2.70;2.60;;;12.60;99.90;;;;;;5009198;28;20239;-82
2021/05/20 04:18:23;;;;;;;3.37;3.17;;;12.40;99.90;;;;;;5009247;28;20209;-82
2021/05/20 04:20:49;;;;;;;3.70;3.50;;;12.50;99.90;;;;;;5010005;28;20201;-84
2021/05/20 04:23:16;;;;;;;4.07;3.77;;;12.40;99.90;;;;;;5010311;28;20205;-84
2021/05/20 04:25:46;;;;;;;3.17;2.83;;;12.20;99.90;;;;;;5010490;28;20210;-85
2021/05/20 04:28:13;;;;;;;3.50;3.20;;;12.10;99.90;;;;;;5007911;28;20242;-77
2021/05/20 04:30:41;;;;;;;3.30;3.10;;;12.10;99.90;;;;;;5023935;28;20258;-78
2021/05/20 04:33:09;;;;;;;3.00;2.90;;;12.10;99.90;;;;;;5027793;28;20274;-78
2021/05/20 04:35:35;;;;;;;3.37;3.17;;;12.20;99.90;;;;;;5027906;28;20212;-77
2021/05/20 04:38:02;;;;;;;3.30;3.10;;;12.20;99.90;;;;;;5027317;28;20208;-78
2021/05/20 04:40:28;;;;;;;3.83;3.57;;;12.10;99.90;;;;;;5027429;28;20623;-76
2021/05/20 04:42:55;;;;;;;4.00;3.80;;;12.30;99.90;;;;;;5027501;28;20264;-81
2021/05/20 04:45:21;;;;;;;3.77;3.57;;;12.00;99.90;;;;;;5028214;28;20690;-81
2021/05/20 04:47:48;;;;;;;3.60;3.30;;;11.90;99.90;;;;;;5028264;28;20698;-82
2021/05/20 04:50:16;;;;;;;3.13;2.93;;;12.00;99.90;;;;;;5028012;28;20577;-82
2021/05/20 04:52:44;;;;;;;3.83;3.47;;;12.10;99.90;;;;;;5028128;28;20258;-81
2021/05/20 04:55:11;;;;;;;3.40;3.20;;;12.30;99.90;;;;;;5028417;28;20216;-82
2021/05/20 04:57:38;;;;;;;5.00;3.57;;;12.20;99.90;;;;;;5028263;28;20560;-82
2021/05/20 05:00:06;;;;;;;3.50;3.30;;;12.30;99.90;;;;;;5028169;28;20216;-82
2021/05/20 05:02:32;;;;;;;3.20;3.00;;;12.30;99.90;;;;;;5028027;28;20241;-82
2021/05/20 05:05:00;;;;;;;3.50;3.30;;;12.30;99.90;;;;;;5028017;28;20250;-81
2021/05/20 05:07:26;;;;;;;3.33;3.10;;;12.20;99.90;;;;;;5027662;28;20279;-82
2021/05/20 05:09:52;;;;;;;4.63;3.57;;;12.30;99.90;;;;;;5027935;28;20209;-82
2021/05/20 05:12:18;;;;;;;3.80;3.50;;;12.20;99.90;;;;;;5102437;28;20812;-85
2021/05/20 05:14:46;;;;;;;3.87;3.67;;;12.20;99.90;;;;;;5112531;28;20202;-81
2021/05/20 05:17:12;;;;;;;3.70;3.50;;;12.10;99.90;;;;;;5111859;28;20304;-81
2021/05/20 05:19:39;;;;;;;3.50;3.30;;;12.20;99.90;;;;;;5030862;28;20279;-79
2021/05/20 05:22:06;;;;;;;4.23;3.93;;;12.10;99.90;;;;;;5017719;28;20251;-75
2021/05/20 05:24:32;;;;;;;4.03;3.73;;;12.20;99.90;;;;;;5007780;28;20603;-79
2021/05/20 05:26:59;;;;;;;5.50;4.40;;;12.40;99.90;;;;;;5008759;28;20209;-79
2021/05/20 05:29:27;;;;;;;3.90;3.60;;;12.50;99.90;;;;;;4991151;28;20297;-80
2021/05/20 05:31:53;;;;;;;4.23;3.63;;;12.60;99.90;;;;;;4985781;28;20246;-80
2021/05/20 05:34:20;;;;;;;3.83;3.60;;;12.60;99.90;;;;;;4995847;28;20219;-79
2021/05/20 05:36:46;;;;;;;4.63;4.23;;;12.70;99.90;;;;;;5002192;28;20231;-80
2021/05/20 05:39:13;;;;;;;4.57;4.17;;;12.50;99.90;;;;;;5012404;28;20210;-79
2021/05/20 05:41:40;;;;;;;3.80;3.60;;;12.50;99.90;;;;;;5023430;28;20229;-87
2021/05/20 05:44:07;;;;;;;5.83;5.40;;;12.40;99.90;;;;;;5008336;28;20317;-81
2021/05/20 05:46:34;;;;;;;4.40;4.10;;;12.40;99.90;;;;;;5005382;28;20255;-79
2021/05/20 05:49:10;;;;;;;4.80;4.40;;;12.40;99.90;;;;;;5005143;28;20238;-80
2021/05/20 05:51:37;;;;;;;4.60;4.30;;;12.30;99.90;;;;;;5004779;28;20243;-80
2021/05/20 05:54:04;;;;;;;4.97;4.57;;;12.30;99.90;;;;;;5005145;28;20254;-81
2021/05/20 05:56:31;;;;;;;5.97;4.23;;;12.60;99.90;;;;;;4999255;28;20210;-80
2021/05/20 05:58:57;;;;;;;4.90;4.40;;;12.70;99.90;;;;;;4997918;28;20229;-81
2021/05/20 06:01:29;;;;;;;4.27;3.97;;;12.60;99.90;;;;;;4997012;28;20238;-78
2021/05/20 06:03:57;;;;;;;5.27;4.33;;;12.60;99.90;;;;;;4999277;28;20261;-84
2021/05/20 06:06:23;;;;;;;4.30;3.90;;;12.60;99.90;;;;;;5030700;28;20232;-80
2021/05/20 06:08:49;;;;;;;4.80;4.40;;;12.50;99.90;;;;;;5083799;28;20290;-80
2021/05/20 06:11:15;;;;;;;4.30;4.00;;;12.40;99.90;;;;;;5025771;28;20575;-79
2021/05/20 06:13:42;;;;;;;4.20;3.80;;;12.30;99.90;;;;;;5025545;28;20216;-79
2021/05/20 06:16:08;;;;;;;3.93;3.70;;;12.30;99.90;;;;;;5026197;28;20217;-80
2021/05/20 06:18:35;;;;;;;4.07;3.73;;;12.40;99.90;;;;;;5026405;28;20215;-80
2021/05/20 06:21:01;;;;;;;4.70;4.30;;;12.60;99.90;;;;;;5026048;28;20706;-80
2021/05/20 06:23:27;;;;;;;4.93;4.57;;;12.60;99.90;;;;;;5025431;28;20544;-80
2021/05/20 06:25:53;;;;;;;5.27;4.10;;;12.60;99.90;;;;;;5025599;28;20308;-81
2021/05/20 06:28:19;;;;;;;3.83;3.57;;;12.80;99.90;;;;;;5025095;28;20231;-79
2021/05/20 06:30:46;;;;;;;4.00;3.70;;;13.00;99.90;;;;;;5025246;28;20209;-79
2021/05/20 06:33:13;;;;;;;4.17;3.87;;;13.20;99.90;;;;;;5026088;28;20208;-80
2021/05/20 06:35:39;;;;;;;3.30;3.10;;;13.20;99.90;;;;;;5026114;28;20280;-80
2021/05/20 06:38:05;;;;;;;4.67;3.60;;;13.10;99.90;;;;;;5026006;28;20205;-81
2021/05/20 06:40:31;;;;;;;3.37;3.17;;;13.10;99.90;;;;;;5025810;28;20209;-82
2021/05/20 06:42:57;;;;;;;3.53;3.23;;;13.30;99.90;;;;;;5025213;28;20650;-80
2021/05/20 06:45:23;;;;;;;4.53;3.30;;;13.50;99.90;;;;;;5025491;28;20727;-81
2021/05/20 06:47:54;;;;;;;4.13;3.73;;;13.60;99.90;;;;;;5025701;28;20709;-80
2021/05/20 06:50:21;;;;;;;7.83;3.97;;;13.60;99.90;;;;;;5026075;28;20224;-80
2021/05/20 06:52:50;;;;;;;3.73;3.43;;;13.50;99.90;;;;;;5025587;28;20213;-80
2021/05/20 06:55:16;;;;;;;3.60;3.30;;;13.30;99.90;;;;;;5025759;28;20709;-80
2021/05/20 07:00:27;;;;;;;3.77;3.50;;;13.30;99.90;;;;;;5025761;28;20192;-80
2021/05/20 07:02:54;;;;;;;6.10;3.80;;;13.10;99.90;;;;;;5025622;28;20205;-80
2021/05/20 07:05:20;;;;;;;7.13;3.37;;;13.10;99.90;;;;;;5025582;28;20213;-80
2021/05/20 07:07:46;;;;;;;3.27;3.07;;;13.20;99.90;;;;;;5025303;28;20671;-79
2021/05/20 07:10:12;;;;;;;3.20;2.90;;;13.30;99.90;;;;;;5025583;28;20212;-80
2021/05/20 07:12:39;;;;;;;3.33;2.77;;;13.40;99.90;;;;;;5025271;28;20212;-80
2021/05/20 07:15:07;;;;;;;3.37;2.50;;;13.50;99.90;;;;;;5025312;28;20281;-80
2021/05/20 07:17:33;;;;;;;2.77;2.57;;;13.60;99.90;;;;;;5025435;28;20213;-81
2021/05/20 07:20:00;;;;;;;3.17;2.47;;;13.40;99.90;;;;;;5025105;28;20686;-80
2021/05/20 07:22:27;;;;;;;2.27;2.17;;;13.00;99.90;;;;;;5025347;28;20212;-80
2021/05/20 07:24:53;;;;;;;2.67;2.47;;;12.90;99.90;;;;;;5025502;28;20228;-80
2021/05/20 07:27:20;;;;;;;4.23;2.20;;;12.90;99.90;;;;;;5025067;28;20667;-80
2021/05/20 07:29:46;;;;;;;3.67;2.37;;;12.90;99.90;;;;;;5024982;28;20619;-80
2021/05/20 07:32:17;;;;;;;2.40;2.30;;;13.10;99.90;;;;;;5025502;28;20205;-80
2021/05/20 07:34:43;;;;;;;2.73;2.33;;;13.10;99.90;;;;;;5025172;28;20254;-80
2021/05/20 07:37:10;;;;;;;2.70;2.50;;;13.40;99.90;;;;;;5025140;28;20209;-79
2021/05/20 07:39:37;;;;;;;3.60;2.07;;;13.20;99.90;;;;;;5029080;28;20645;-80
2021/05/20 07:42:04;;;;;;;2.10;1.90;;;13.40;99.90;;;;;;5028500;28;20232;-81
2021/05/20 07:44:30;;;;;;;2.03;1.93;;;13.50;99.90;;;;;;5028988;27;20236;-80
2021/05/20 07:46:57;;;;;;;2.33;1.97;;;13.60;99.90;;;;;;5029395;28;20213;-80
2021/05/20 07:49:25;;;;;;;2.70;2.10;;;13.70;99.90;;;;;;5028419;27;20327;-80
2021/05/20 07:51:51;;;;;;;2.00;1.90;;;13.70;99.90;;;;;;5028213;28;20209;-81
2021/05/20 07:54:19;;;;;;;2.73;2.10;;;13.90;99.90;;;;;;5028833;28;20222;-80
2021/05/20 07:56:45;;;;;;;6.07;2.00;;;13.80;99.90;;;;;;5028923;28;20209;-79
2021/05/20 07:59:11;;;;;;;2.47;1.60;;;13.80;99.90;;;;;;5028812;28;20215;-79
2021/05/20 08:01:41;;;;;;;2.10;1.90;;;13.70;99.90;;;;;;5028310;28;20281;-80
2021/05/20 08:04:10;;;;;;;7.07;1.50;;;13.70;99.90;;;;;;5018185;28;20708;-81
2021/05/20 08:06:40;;;;;;;2.00;1.90;;;13.90;99.90;;;;;;5008236;28;20578;-79
2021/05/20 08:09:17;;;;;;;2.20;1.60;;;13.70;99.90;;;;;;5008180;28;20702;-80
2021/05/20 08:11:44;;;;;;;1.90;1.80;;;13.90;99.90;;;;;;5007795;28;20249;-80
2021/05/20 08:14:10;;;;;;;2.87;1.97;;;13.90;99.90;;;;;;5008168;28;20885;-80
2021/05/20 08:16:36;;;;;;;2.00;1.60;;;13.80;99.90;;;;;;5008341;28;20231;-80
2021/05/20 08:19:03;;;;;;;3.53;1.90;;;13.70;99.90;;;;;;5008202;28;20682;-79
2021/05/20 08:21:29;;;;;;;1.80;1.70;;;13.50;99.90;;;;;;5007882;28;20202;-79
2021/05/20 08:23:56;;;;;;;2.50;1.83;;;13.50;99.90;;;;;;5008386;28;20274;-80
2021/05/20 08:26:25;;;;;;;1.70;1.60;;;13.40;99.90;;;;;;5008155;28;20212;-79
2021/05/20 08:28:52;;;;;;;3.37;1.80;;;13.40;99.90;;;;;;5007810;28;20653;-80
2021/05/20 08:31:19;;;;;;;1.80;1.37;;;13.60;99.90;;;;;;5008332;28;20216;-80
2021/05/20 08:33:45;;;;;;;1.80;1.70;;;13.80;99.90;;;;;;5007930;28;20959;-80
2021/05/20 08:36:11;;;;;;;1.93;1.70;;;13.90;99.90;;;;;;5008029;28;20214;-79
2021/05/20 08:38:38;;;;;;;2.27;1.40;;;13.80;99.90;;;;;;5008040;28;20209;-81
2021/05/20 08:41:04;;;;;;;2.60;1.50;;;13.90;99.90;;;;;;5007599;28;20233;-79
2021/05/20 08:43:30;;;;;;;2.50;1.43;;;14.00;99.90;;;;;;5007603;28;20245;-79
2021/05/20 08:45:58;;;;;;;1.37;1.30;;;13.90;99.90;;;;;;5008158;28;20205;-79
2021/05/20 08:48:24;;;;;;;1.40;1.30;;;14.00;99.90;;;;;;5007711;28;20236;-80
2021/05/20 08:50:51;;;;;;;3.17;1.53;;;14.00;99.90;;;;;;5007216;28;20245;-79
2021/05/20 08:53:17;;;;;;;1.83;1.20;;;14.20;99.90;;;;;;5007976;28;20623;-80
2021/05/20 08:55:43;;;;;;;1.63;1.30;;;14.40;99.90;;;;;;5007704;28;20235;-80
2021/05/20 08:58:11;;;;;;;1.40;1.30;;;14.40;99.90;;;;;;5007873;28;20236;-79
2021/05/20 09:00:39;;;;;;;1.67;1.57;;;14.20;99.90;;;;;;5007647;28;20209;-80
2021/05/20 09:03:07;;;;;;;1.57;1.47;;;14.10;99.90;;;;;;5007282;28;20588;-80
2021/05/20 09:05:34;;;;;;;1.47;1.37;;;14.30;99.90;;;;;;5007719;28;20225;-80
2021/05/20 09:08:02;;;;;;;2.73;1.47;;;14.50;99.90;;;;;;5007297;28;20813;-80
2021/05/20 09:10:29;;;;;;;1.77;1.63;;;14.30;99.90;;;;;;5007555;28;20214;-79
2021/05/20 09:12:59;;;;;;;1.80;1.70;;;14.40;99.90;;;;;;5007730;28;20240;-80
2021/05/20 09:15:28;;;;;;;1.63;1.50;;;14.50;99.90;;;;;;5007725;28;20214;-80
2021/05/20 09:18:01;;;;;;;1.60;1.50;;;14.60;99.90;;;;;;5008221;28;20210;-79
2021/05/20 09:20:28;;;;;;;1.30;1.30;;;14.60;99.90;;;;;;5007365;28;20562;-80
2021/05/20 09:23:06;;;;;;;1.50;1.40;;;14.50;99.90;;;;;;5007335;28;20206;-80
2021/05/20 09:25:34;;;;;;;3.10;1.20;;;14.40;99.90;;;;;;5007533;28;20270;-79
2021/05/20 09:28:01;;;;;;;2.67;1.30;;;14.60;99.90;;;;;;5007411;28;20248;-80
2021/05/20 09:30:28;;;;;;;2.17;1.43;;;14.70;99.90;;;;;;5007493;28;20738;-80
2021/05/20 09:32:57;;;;;;;3.37;1.50;;;14.80;99.90;;;;;;5006884;28;20812;-80
2021/05/20 09:35:25;;;;;;;1.23;1.17;;;14.80;99.90;;;;;;5007196;28;20217;-80
2021/05/20 09:37:55;;;;;;;2.37;1.60;;;15.00;99.90;;;;;;5006415;28;20606;-79
2021/05/20 09:40:25;;;;;;;1.47;1.40;;;15.00;99.90;;;;;;5008155;28;20209;-80
2021/05/20 09:42:51;;;;;;;1.83;1.63;;;14.60;99.90;;;;;;5006737;28;20252;-79
2021/05/20 09:45:20;;;;;;;1.37;1.27;;;14.60;99.90;;;;;;5007087;28;20511;-79
2021/05/20 09:47:47;;;;;;;2.93;1.43;;;14.70;99.90;;;;;;5006892;28;20340;-80
2021/05/20 09:50:15;;;;;;;1.77;1.40;;;15.00;99.90;;;;;;5007140;28;20209;-80
2021/05/20 09:52:41;;;;;;;1.70;1.60;;;15.00;99.90;;;;;;5006709;28;20722;-79
2021/05/20 09:55:24;;;;;;;1.67;1.30;;;15.30;99.90;;;;;;5007338;28;20205;-80
2021/05/20 09:57:52;;;;;;;1.70;1.60;;;15.40;99.90;;;;;;5007004;28;20237;-80
2021/05/20 10:00:21;;;;;;;1.90;1.50;;;15.30;99.90;;;;;;5007069;28;20218;-80
2021/05/20 10:02:48;;;;;;;1.37;1.27;;;15.20;99.90;;;;;;5005735;28;20300;-80
2021/05/20 10:05:27;;;;;;;1.80;1.43;;;15.20;99.90;;;;;;5006736;28;20216;-80
2021/05/20 10:07:54;;;;;;;2.60;1.30;;;15.30;99.90;;;;;;5010535;28;20230;-80
2021/05/20 10:10:22;;;;;;;3.13;1.40;;;15.50;99.90;;;;;;5006731;28;20294;-79
2021/05/20 10:12:49;;;;;;;1.80;1.70;;;15.70;99.90;;;;;;5006720;28;20801;-79
2021/05/20 10:15:17;;;;;;;1.60;1.37;;;15.70;99.90;;;;;;5006346;28;20664;-80
2021/05/20 10:17:44;;;;;;;1.50;1.40;;;16.00;99.90;;;;;;5006551;28;20206;-79
2021/05/20 10:20:12;;;;;;;2.47;1.17;;;16.10;99.90;;;;;;5006780;28;20214;-80
2021/05/20 10:22:39;;;;;;;2.80;1.47;;;16.00;99.90;;;;;;5006500;28;20209;-79
2021/05/20 10:25:07;;;;;;;43.20;3.20;;;16.20;99.90;;;;;;5006018;28;20221;-80
2021/05/20 10:27:36;;;;;;;4.00;1.70;;;16.40;99.90;;;;;;5006474;28;20270;-79
2021/05/20 10:30:04;;;;;;;1.47;1.37;;;16.50;99.90;;;;;;5006469;28;20218;-79
2021/05/20 10:32:31;;;;;;;1.53;1.27;;;16.70;99.90;;;;;;5006369;28;20206;-80
2021/05/20 10:34:58;;;;;;;1.47;1.40;;;16.80;99.90;;;;;;5006061;28;20705;-81
2021/05/20 10:37:27;;;;;;;1.97;1.83;;;16.80;99.90;;;;;;5005995;28;20687;-80
2021/05/20 10:39:54;;;;;;;2.33;2.10;;;16.90;99.90;;;;;;5006111;28;20637;-79
2021/05/20 10:42:38;;;;;;;1.73;1.63;;;16.60;99.90;;;;;;5006067;28;20570;-79
2021/05/20 10:45:15;;;;;;;2.77;1.57;;;16.60;99.90;;;;;;5006105;28;20235;-79
2021/05/20 10:48:15;;;;;;;7.97;1.97;;;16.70;99.90;;;;;;5006075;28;20213;-80
2021/05/20 10:50:58;;;;;;;1.80;1.60;;;16.70;99.90;;;;;;5006397;28;20205;-80
2021/05/20 10:53:45;;;;;;;6.00;2.27;;;17.10;99.90;;;;;;5006029;28;20217;-80
2021/05/20 10:56:49;;;;;;;2.13;1.73;;;17.30;99.90;;;;;;5005701;28;20241;-80
2021/05/20 10:59:53;;;;;;;1.70;1.60;;;17.50;99.90;;;;;;5005850;28;20239;-80
2021/05/20 11:02:51;;;;;;;1.60;1.50;;;17.50;99.90;;;;;;5002465;28;20583;-80
2021/05/20 11:05:54;;;;;;;3.80;2.00;;;17.30;99.90;;;;;;5005529;28;20709;-79
2021/05/20 11:08:58;;;;;;;1.90;1.80;;;17.50;99.90;;;;;;5005761;28;20282;-79
2021/05/20 11:11:50;;;;;;;1.83;1.60;;;17.80;99.90;;;;;;5006099;28;20193;-80
2021/05/20 11:14:34;;;;;;;2.03;1.37;;;17.80;99.90;;;;;;5008971;28;20190;-79
2021/05/20 11:17:00;;;;;;;5.30;1.50;;;17.30;99.90;;;;;;5009213;28;20213;-79
2021/05/20 11:19:28;;;;;;;1.63;1.30;;;17.60;99.90;;;;;;5009263;28;20213;-79
2021/05/20 11:22:11;;;;;;;2.17;1.50;;;17.60;99.90;;;;;;5009392;28;20214;-79
2021/05/20 11:24:38;;;;;;;1.10;1.00;;;17.80;99.50;;;;;;5009160;28;20205;-79
2021/05/20 11:27:09;;;;;;;1.03;1.03;;;18.00;98.90;;;;;;5008841;28;20205;-79
2021/05/20 11:29:36;;;;;;;1.20;1.00;;;18.10;98.10;;;;;;5008996;28;20221;-80
2021/05/20 11:32:16;;;;;;;1.10;0.97;;;18.40;98.60;;;;;;5009232;28;20218;-79
2021/05/20 11:35:02;;;;;;;1.90;1.17;;;18.70;98.40;;;;;;5009043;28;20228;-79
2021/05/20 11:37:32;;;;;;;1.07;0.90;;;18.40;97.30;;;;;;5009009;28;20205;-80
2021/05/20 11:39:58;;;;;;;0.97;0.90;;;17.90;97.80;;;;;;5008885;28;20293;-79
2021/05/20 11:42:27;;;;;;;1.00;1.00;;;18.00;97.40;;;;;;5008842;28;20262;-79
2021/05/20 11:44:53;;;;;;;2.00;1.23;;;17.90;98.00;;;;;;5008782;28;20204;-79
2021/05/20 11:47:21;;;;;;;0.70;0.70;;;18.20;98.30;;;;;;5009126;28;20220;-80
2021/05/20 11:49:48;;;;;;;1.60;0.97;;;18.00;97.50;;;;;;5008660;28;20234;-78
2021/05/20 11:52:14;;;;;;;1.87;1.40;;;18.50;97.80;;;;;;5008361;28;20615;-79
2021/05/20 11:54:42;;;;;;;1.17;1.10;;;18.80;97.20;;;;;;5008930;28;20213;-79
2021/05/20 11:57:10;;;;;;;0.77;0.70;;;19.00;96.90;;;;;;5008565;28;20210;-79
2021/05/20 11:59:48;;;;;;;1.23;1.10;;;18.80;96.70;;;;;;5008513;28;20770;-79
2021/05/20 12:02:18;;;;;;;1.27;1.17;;;18.60;96.80;;;;;;5008669;28;20262;-79
2021/05/20 12:04:44;;;;;;;6.53;1.50;;;18.00;96.90;;;;;;5008420;28;20614;-79
2021/05/20 12:07:18;;;;;;;13.33;1.60;;;18.30;97.80;;;;;;5008456;28;20237;-79
2021/05/20 12:09:45;;;;;;;1.13;1.10;;;18.30;97.10;;;;;;5007864;28;20253;-79
2021/05/20 12:12:13;;;;;;;2.37;1.00;;;18.60;97.50;;;;;;5008753;28;20216;-78
2021/05/20 12:14:39;;;;;;;1.20;1.10;;;19.00;96.70;;;;;;5009199;28;20848;-79
2021/05/20 12:17:13;;;;;;;1.30;1.20;;;19.30;96.30;;;;;;5008354;28;20210;-79
2021/05/20 12:19:46;;;;;;;1.57;1.10;;;19.00;94.60;;;;;;5008471;28;20243;-78
2021/05/20 12:22:23;;;;;;;3.87;1.17;;;18.80;95.60;;;;;;5008547;28;20543;-78
2021/05/20 12:24:51;;;;;;;1.17;1.07;;;19.00;95.60;;;;;;5007162;28;20201;-79
2021/05/20 12:27:20;;;;;;;1.20;1.10;;;19.10;96.00;;;;;;5008546;28;20236;-79
2021/05/20 12:29:48;;;;;;;1.37;1.23;;;19.20;95.40;;;;;;5007498;28;20234;-79
2021/05/20 12:32:36;;;;;;;1.07;1.07;;;19.00;94.10;;;;;;5008401;28;20209;-79
2021/05/20 12:35:18;;;;;;;1.03;0.90;;;19.00;93.20;;;;;;5007683;28;20616;-79
2021/05/20 12:37:47;;;;;;;1.27;1.17;;;18.60;93.80;;;;;;5007809;28;20201;-79
2021/05/20 12:40:15;;;;;;;1.23;1.13;;;18.10;94.40;;;;;;5007963;28;20253;-79
2021/05/20 12:42:42;;;;;;;1.20;1.10;;;18.40;95.10;;;;;;5007946;28;20600;-79
2021/05/20 12:45:10;;;;;;;3.03;1.30;;;18.70;95.30;;;;;;5007906;28;20197;-79
2021/05/20 12:47:47;;;;;;;1.07;1.07;;;19.00;94.90;;;;;;5008208;28;20296;-79
2021/05/20 12:50:24;;;;;;;1.90;0.90;;;18.70;94.70;;;;;;5007993;28;20213;-79
2021/05/20 12:52:55;;;;;;;1.30;0.53;;;18.40;94.40;;;;;;5007534;28;20190;-80
2021/05/20 12:55:31;;;;;;;1.70;0.80;;;17.60;94.10;;;;;;5007952;28;20222;-79
2021/05/20 12:57:59;;;;;;;2.97;1.13;;;17.30;94.20;;;;;;5007920;28;20193;-79